KPKB/PKB METAR and TAF weather

Enter ICAO airport designator
Station Type Date Time Source
KPKB METAR 2021/05/15 23:53 UTC NOAA

KPKB 152353Z 34003KT 10SM CLR 21/01 A3020 RMK AO2 SLP225 T02060011 10239 20200 58005


Station Type Date Time Source
KPKB Decoded METAR 2021/05/15 23:53 UTC NOAA

MID-OHIO VALLEY RGNL AIRPORT, WV, United States (KPKB) 39-20N 81-27W
May 15, 2021 - 07:53 PM EDT / 2021.05.15 2353 UTC
Wind: from the NNW (340 degrees) at 3 MPH (3 KT):0
Visibility: 10 mile(s):0
Sky conditions: clear
Temperature: 69.1 F (20.6 C)
Dew Point: 34.0 F (1.1 C)
Relative Humidity: 27%
Pressure (altimeter): 30.2 in. Hg (1022 hPa)
Pressure tendency: 0.01 inches (0.5 hPa) lower than three hours ago
ob: KPKB 152353Z 34003KT 10SM CLR 21/01 A3020 RMK AO2 SLP225 T02060011 10239 20200 58005
cycle: 0

Station Type Date Time Source
KPKB TAF 2021/05/15 21:59 UTC NOAA

TAF
AMD KPKB 152059Z 1521/1618 VRB03KT P6SM FEW250
FM161500 VRB03KT P6SM BKN070

Example: see airport list